Time;durP1;ratioP1;P1;durP2;ratioP2;P2;SDS_P1;SDS_P2;PMS_P1;PMS_P2;Temp;Humidity;BMP_temperature;BMP_pressure;BME280_temperature;BME280_humidity;BME280_pressure;Samples;Min_cycle;Max_cycle;Signal;HPM_P1;HPM_P2
2021/10/13 00:04:54;;;;;;;10.13;3.83;;;;;;;;;;10342759;28;20291;-89
2021/10/13 00:09:57;;;;;;;11.00;3.72;;;;;;;;;;10346610;28;20756;-89
2021/10/13 00:14:57;;;;;;;6.07;3.50;;;;;;;;;;10370514;28;20026;-89
2021/10/13 00:19:58;;;;;;;10.33;3.60;;;;;;;;;;10347854;28;20022;-88
2021/10/13 00:24:58;;;;;;;13.68;3.33;;;;;;;;;;10379635;28;20675;-87
2021/10/13 00:29:58;;;;;;;7.27;3.23;;;;;;;;;;10381113;28;20125;-88
2021/10/13 00:34:59;;;;;;;9.30;3.25;;;;;;;;;;10363032;28;20267;-88
2021/10/13 00:40:00;;;;;;;7.87;3.70;;;;;;;;;;10380419;28;20377;-88
2021/10/13 00:45:00;;;;;;;10.68;3.58;;;;;;;;;;10379644;28;20291;-87
2021/10/13 00:50:05;;;;;;;12.70;3.65;;;;;;;;;;10379840;28;20499;-86
2021/10/13 00:55:17;;;;;;;4.47;2.88;;;;;;;;;;10378240;28;20108;-87
2021/10/13 01:00:22;;;;;;;8.73;2.97;;;;;;;;;;10379147;28;20029;-87
2021/10/13 01:05:42;;;;;;;9.65;3.75;;;;;;;;;;10362548;28;20116;-90
2021/10/13 01:10:58;;;;;;;11.18;3.00;;;;;;;;;;10379040;28;20054;-88
2021/10/13 01:16:24;;;;;;;13.07;2.88;;;;;;;;;;10361170;28;20044;-90
2021/10/13 01:22:00;;;;;;;5.82;2.80;;;;;;;;;;10348281;28;20026;-92
2021/10/13 01:27:29;;;;;;;8.32;2.42;;;;;;;;;;10368444;28;20372;-92
2021/10/13 01:32:32;;;;;;;7.40;3.33;;;;;;;;;;10361322;28;20049;-92
2021/10/13 01:37:46;;;;;;;5.70;2.83;;;;;;;;;;10360691;28;20470;-90
2021/10/13 01:42:49;;;;;;;4.85;2.75;;;;;;;;;;10343762;28;20093;-90
2021/10/13 01:47:50;;;;;;;6.13;3.00;;;;;;;;;;10360402;28;20033;-92
2021/10/13 01:52:51;;;;;;;5.93;3.00;;;;;;;;;;10343868;28;20120;-91
2021/10/13 01:57:54;;;;;;;5.97;2.50;;;;;;;;;;10343742;28;20159;-92
2021/10/13 02:02:56;;;;;;;11.25;3.08;;;;;;;;;;10343430;28;20026;-89
2021/10/13 02:07:58;;;;;;;3.92;2.60;;;;;;;;;;10359774;28;20026;-89
2021/10/13 02:13:01;;;;;;;7.57;2.33;;;;;;;;;;10376253;28;20026;-88
2021/10/13 02:18:03;;;;;;;4.28;2.78;;;;;;;;;;10358363;28;20376;-89
2021/10/13 02:23:04;;;;;;;8.63;2.90;;;;;;;;;;10359970;28;20045;-89
2021/10/13 02:28:08;;;;;;;5.93;2.50;;;;;;;;;;10358776;28;20050;-89
2021/10/13 02:33:09;;;;;;;5.93;2.50;;;;;;;;;;10359404;28;20029;-89
2021/10/13 02:38:09;;;;;;;6.20;2.70;;;;;;;;;;10358649;28;20056;-87
2021/10/13 02:43:10;;;;;;;5.77;2.87;;;;;;;;;;10358582;28;20295;-87
2021/10/13 02:48:18;;;;;;;6.50;3.00;;;;;;;;;;10357838;28;20088;-87
2021/10/13 02:53:22;;;;;;;4.65;2.67;;;;;;;;;;10359036;28;20018;-87
2021/10/13 02:58:31;;;;;;;6.53;2.70;;;;;;;;;;10374807;28;20096;-88
2021/10/13 03:03:48;;;;;;;;;;;;;;;;;;10359355;28;20030;-88
2021/10/13 03:08:50;;;;;;;6.93;2.90;;;;;;;;;;10357872;28;19919;-90
2021/10/13 03:13:53;;;;;;;7.00;2.65;;;;;;;;;;10342396;28;20029;-91
2021/10/13 03:18:54;;;;;;;5.20;2.42;;;;;;;;;;10342089;28;20029;-91
2021/10/13 03:23:55;;;;;;;4.32;2.75;;;;;;;;;;10358263;28;20045;-89
2021/10/13 03:28:55;;;;;;;5.30;2.67;;;;;;;;;;10345113;28;20018;-89
2021/10/13 03:33:55;;;;;;;7.85;2.20;;;;;;;;;;10377203;28;20482;-89
2021/10/13 03:38:56;;;;;;;5.73;2.47;;;;;;;;;;10353975;28;20412;-89
2021/10/13 03:43:56;;;;;;;3.90;2.73;;;;;;;;;;10381394;28;20435;-89
2021/10/13 03:48:57;;;;;;;4.73;2.43;;;;;;;;;;10349447;28;20264;-89
2021/10/13 03:53:57;;;;;;;2.67;2.20;;;;;;;;;;10365590;28;20305;-89
2021/10/13 03:58:58;;;;;;;2.92;2.17;;;;;;;;;;10365715;28;20120;-89
2021/10/13 04:03:59;;;;;;;4.85;2.28;;;;;;;;;;10348355;28;20038;-89
2021/10/13 04:08:59;;;;;;;5.20;2.20;;;;;;;;;;10364507;28;20034;-90
2021/10/13 04:14:00;;;;;;;4.77;2.23;;;;;;;;;;10358067;28;20034;-89
2021/10/13 04:19:00;;;;;;;9.47;2.60;;;;;;;;;;10384446;28;20275;-89
2021/10/13 04:24:00;;;;;;;9.18;2.92;;;;;;;;;;10370833;28;20338;-90
2021/10/13 04:29:01;;;;;;;4.57;2.57;;;;;;;;;;10356975;28;20128;-88
2021/10/13 04:34:01;;;;;;;5.80;2.23;;;;;;;;;;10396083;28;20034;-88
2021/10/13 04:39:02;;;;;;;5.20;2.40;;;;;;;;;;10361053;28;20291;-90
2021/10/13 04:44:03;;;;;;;4.93;2.50;;;;;;;;;;10351323;28;20085;-90
2021/10/13 04:49:03;;;;;;;6.95;2.30;;;;;;;;;;10342655;28;20022;-89
2021/10/13 04:54:03;;;;;;;6.17;2.27;;;;;;;;;;10378969;28;20065;-88
2021/10/13 04:59:04;;;;;;;3.57;2.03;;;;;;;;;;10376271;28;20030;-89
2021/10/13 05:04:04;;;;;;;3.27;2.03;;;;;;;;;;10351626;28;20114;-88
2021/10/13 05:09:05;;;;;;;3.23;2.77;;;;;;;;;;10379000;28;20037;-93
2021/10/13 05:14:05;;;;;;;4.60;3.40;;;;;;;;;;10354760;28;20272;-93
2021/10/13 05:19:06;;;;;;;7.25;6.45;;;;;;;;;;10342864;28;20123;-88
2021/10/13 05:24:08;;;;;;;12.70;6.93;;;;;;;;;;10377802;28;20057;-87
2021/10/13 05:29:12;;;;;;;15.40;5.15;;;;;;;;;;10373388;28;20106;-94
2021/10/13 05:34:37;;;;;;;14.93;3.65;;;;;;;;;;10357104;28;20033;-96
2021/10/13 05:39:37;;;;;;;39.20;4.65;;;;;;;;;;10335346;28;20035;-83
2021/10/13 05:44:38;;;;;;;23.03;4.57;;;;;;;;;;10372470;28;20404;-84
2021/10/13 05:49:38;;;;;;;11.97;6.60;;;;;;;;;;10377400;28;20284;-84
2021/10/13 05:54:40;;;;;;;10.23;5.90;;;;;;;;;;10377143;28;20034;-84
2021/10/13 05:59:42;;;;;;;9.50;6.63;;;;;;;;;;10376516;28;20030;-84
2021/10/13 06:04:42;;;;;;;9.07;7.00;;;;;;;;;;10375635;28;20037;-83
2021/10/13 06:09:42;;;;;;;30.50;7.53;;;;;;;;;;10404531;28;20084;-85
2021/10/13 06:14:43;;;;;;;24.38;6.18;;;;;;;;;;10390852;28;20034;-84
2021/10/13 06:19:43;;;;;;;18.80;6.30;;;;;;;;;;10385590;28;20057;-85
2021/10/13 06:24:43;;;;;;;15.83;7.80;;;;;;;;;;10378000;28;20041;-85
2021/10/13 06:29:44;;;;;;;34.63;7.33;;;;;;;;;;10374964;28;20033;-84
2021/10/13 06:34:44;;;;;;;16.42;6.47;;;;;;;;;;10377235;28;20263;-84
2021/10/13 06:39:44;;;;;;;9.50;5.77;;;;;;;;;;10375367;28;20087;-86
2021/10/13 06:44:45;;;;;;;18.07;5.40;;;;;;;;;;10374989;28;20576;-85
2021/10/13 06:49:45;;;;;;;11.93;6.10;;;;;;;;;;10375218;28;20115;-85
2021/10/13 06:54:45;;;;;;;15.03;5.73;;;;;;;;;;10374489;28;20037;-85
2021/10/13 06:59:46;;;;;;;11.97;5.63;;;;;;;;;;10378184;28;20030;-85
2021/10/13 07:04:46;;;;;;;9.80;4.07;;;;;;;;;;10374257;28;20125;-84
2021/10/13 07:09:46;;;;;;;14.77;4.20;;;;;;;;;;10374498;28;20411;-85
2021/10/13 07:14:47;;;;;;;12.53;4.03;;;;;;;;;;10375157;28;20030;-85
2021/10/13 07:19:47;;;;;;;8.10;3.95;;;;;;;;;;10382140;28;20040;-85
2021/10/13 07:24:48;;;;;;;6.30;3.60;;;;;;;;;;10383426;28;20069;-84
2021/10/13 07:29:56;;;;;;;8.90;3.73;;;;;;;;;;10381945;28;20388;-85
2021/10/13 07:34:56;;;;;;;10.07;4.30;;;;;;;;;;10381443;28;20304;-85
2021/10/13 07:39:57;;;;;;;9.65;4.75;;;;;;;;;;10382068;28;20034;-85
2021/10/13 07:44:57;;;;;;;9.53;3.83;;;;;;;;;;10408961;23;20058;-85
2021/10/13 07:49:57;;;;;;;6.97;4.00;;;;;;;;;;10422349;28;20040;-85
2021/10/13 07:54:58;;;;;;;10.17;4.07;;;;;;;;;;10421624;28;20112;-86
2021/10/13 07:59:58;;;;;;;8.82;3.80;;;;;;;;;;10422362;28;20091;-84
2021/10/13 08:04:58;;;;;;;5.47;3.60;;;;;;;;;;10422964;28;20364;-85
2021/10/13 08:09:59;;;;;;;7.90;3.53;;;;;;;;;;10421774;28;20048;-85
2021/10/13 08:14:59;;;;;;;8.30;4.00;;;;;;;;;;10420675;28;20120;-85
2021/10/13 08:20:03;;;;;;;5.93;3.53;;;;;;;;;;10421203;28;20026;-84
2021/10/13 08:25:04;;;;;;;5.00;3.15;;;;;;;;;;10420862;28;20025;-84
2021/10/13 08:30:05;;;;;;;8.23;4.22;;;;;;;;;;10420896;28;20037;-84
2021/10/13 08:35:07;;;;;;;7.80;3.88;;;;;;;;;;10405814;28;20033;-84
2021/10/13 08:40:08;;;;;;;6.05;3.67;;;;;;;;;;10420881;28;20071;-84
2021/10/13 08:45:09;;;;;;;5.80;3.30;;;;;;;;;;10420922;28;20046;-84
2021/10/13 08:50:09;;;;;;;10.15;3.47;;;;;;;;;;10419336;28;20042;-84
2021/10/13 08:55:12;;;;;;;8.40;3.93;;;;;;;;;;10420061;28;20035;-85
2021/10/13 09:00:22;;;;;;;7.15;4.10;;;;;;;;;;10418920;28;20274;-84
2021/10/13 09:05:23;;;;;;;9.30;3.63;;;;;;;;;;10419560;28;20033;-85
2021/10/13 09:10:31;;;;;;;3.80;3.38;;;;;;;;;;10418742;28;20109;-85
2021/10/13 09:15:31;;;;;;;5.90;3.80;;;;;;;;;;10419111;28;20033;-84
2021/10/13 09:20:34;;;;;;;5.75;3.40;;;;;;;;;;10418006;28;20107;-85
2021/10/13 09:25:36;;;;;;;5.10;3.17;;;;;;;;;;10418334;28;20116;-85
2021/10/13 09:30:39;;;;;;;5.00;3.53;;;;;;;;;;10418495;28;20037;-85
2021/10/13 09:35:46;;;;;;;4.75;3.35;;;;;;;;;;10417502;28;20368;-85
2021/10/13 09:40:48;;;;;;;6.88;3.38;;;;;;;;;;10417464;28;20026;-85
2021/10/13 09:46:00;;;;;;;6.50;3.40;;;;;;;;;;10418235;28;20088;-85
2021/10/13 09:51:21;;;;;;;6.88;3.30;;;;;;;;;;10417616;28;20033;-84
2021/10/13 09:56:27;;;;;;;6.28;3.65;;;;;;;;;;10418636;28;20080;-85
2021/10/13 10:01:28;;;;;;;4.22;3.50;;;;;;;;;;10419423;28;20041;-84
2021/10/13 10:06:29;;;;;;;4.60;3.17;;;;;;;;;;10401185;28;20398;-85
2021/10/13 10:11:39;;;;;;;6.55;3.30;;;;;;;;;;10414663;28;20041;-85
2021/10/13 10:16:39;;;;;;;4.93;3.10;;;;;;;;;;10415875;28;20033;-87
2021/10/13 10:21:59;;;;;;;4.63;3.20;;;;;;;;;;10411436;28;20037;-91
2021/10/13 10:27:19;;;;;;;4.10;3.15;;;;;;;;;;10412371;28;20025;-91
2021/10/13 10:32:20;;;;;;;8.05;3.30;;;;;;;;;;10412980;28;20084;-86
2021/10/13 10:37:21;;;;;;;9.80;3.47;;;;;;;;;;10413985;28;20057;-88
2021/10/13 10:42:49;;;;;;;4.30;3.22;;;;;;;;;;10410280;28;20383;-87
2021/10/13 10:47:55;;;;;;;3.55;3.05;;;;;;;;;;10399029;28;20480;-87
2021/10/13 10:53:29;;;;;;;4.28;3.55;;;;;;;;;;10400375;28;20454;-86
2021/10/13 10:58:31;;;;;;;7.13;3.30;;;;;;;;;;10414110;28;20083;-87
2021/10/13 11:03:37;;;;;;;4.32;3.40;;;;;;;;;;10411695;28;20034;-85
2021/10/13 11:08:52;;;;;;;5.38;3.05;;;;;;;;;;10412992;28;20426;-90
2021/10/13 11:13:55;;;;;;;4.60;3.35;;;;;;;;;;10412556;28;20032;-89
2021/10/13 11:19:18;;;;;;;4.95;3.28;;;;;;;;;;10398768;28;20029;-90
2021/10/13 11:24:19;;;;;;;7.30;3.25;;;;;;;;;;10399411;28;20100;-88
2021/10/13 11:29:22;;;;;;;3.85;2.70;;;;;;;;;;10405203;28;20220;-88
2021/10/13 11:34:22;;;;;;;5.43;3.60;;;;;;;;;;10386417;28;20025;-87
2021/10/13 11:39:27;;;;;;;6.03;3.23;;;;;;;;;;10411144;28;20052;-86
2021/10/13 11:44:29;;;;;;;4.68;3.20;;;;;;;;;;10394089;28;20131;-85
2021/10/13 11:49:30;;;;;;;3.97;2.95;;;;;;;;;;10403294;28;20037;-84
2021/10/13 11:54:30;;;;;;;3.78;2.78;;;;;;;;;;10404508;28;20044;-84
2021/10/13 11:59:31;;;;;;;3.70;3.00;;;;;;;;;;10410717;28;20034;-84
2021/10/13 12:04:31;;;;;;;4.20;3.38;;;;;;;;;;10408673;28;20034;-83
2021/10/13 12:09:32;;;;;;;7.00;3.00;;;;;;;;;;10416751;28;20037;-83
2021/10/13 12:14:35;;;;;;;3.77;2.97;;;;;;;;;;10417251;28;20033;-83
2021/10/13 12:19:42;;;;;;;5.55;3.20;;;;;;;;;;10409932;28;20028;-84
2021/10/13 12:24:42;;;;;;;4.03;2.80;;;;;;;;;;10397853;28;20044;-83
2021/10/13 12:29:43;;;;;;;6.50;3.17;;;;;;;;;;10420841;28;20036;-83
2021/10/13 12:34:44;;;;;;;7.07;3.15;;;;;;;;;;10419144;28;20029;-83
2021/10/13 12:39:44;;;;;;;3.08;2.78;;;;;;;;;;10401160;28;20025;-83
2021/10/13 12:44:45;;;;;;;5.53;3.83;;;;;;;;;;10417214;28;20049;-82
2021/10/13 12:49:47;;;;;;;8.73;3.00;;;;;;;;;;10410436;28;20345;-84
2021/10/13 12:54:50;;;;;;;5.28;3.13;;;;;;;;;;10413889;28;20030;-83
2021/10/13 12:59:51;;;;;;;5.00;3.10;;;;;;;;;;10414194;28;20071;-83
2021/10/13 13:04:53;;;;;;;8.00;3.20;;;;;;;;;;10412930;28;20037;-83
2021/10/13 13:09:54;;;;;;;6.72;2.67;;;;;;;;;;10416281;28;21673;-84
2021/10/13 13:14:54;;;;;;;8.90;3.00;;;;;;;;;;10408547;28;20034;-85
2021/10/13 13:19:54;;;;;;;6.80;3.00;;;;;;;;;;10412872;28;20287;-83
2021/10/13 13:24:55;;;;;;;5.93;3.13;;;;;;;;;;10414891;28;20025;-83
2021/10/13 13:29:55;;;;;;;13.53;2.90;;;;;;;;;;10416264;28;20029;-83
2021/10/13 13:34:55;;;;;;;5.93;3.20;;;;;;;;;;10413766;28;20468;-83
2021/10/13 13:39:56;;;;;;;8.50;2.63;;;;;;;;;;10395027;28;20032;-84
2021/10/13 13:44:56;;;;;;;7.47;2.70;;;;;;;;;;10409713;28;20080;-83
2021/10/13 13:49:59;;;;;;;4.17;2.93;;;;;;;;;;10410757;28;20051;-84
2021/10/13 13:55:00;;;;;;;13.48;3.55;;;;;;;;;;10410213;28;20034;-85
2021/10/13 14:00:00;;;;;;;5.88;3.20;;;;;;;;;;10416290;28;20036;-83
2021/10/13 14:05:01;;;;;;;4.10;3.13;;;;;;;;;;10414759;28;20470;-84
2021/10/13 14:10:03;;;;;;;4.30;2.90;;;;;;;;;;10416057;28;20487;-84
2021/10/13 14:15:05;;;;;;;3.85;2.80;;;;;;;;;;10416072;28;20522;-83
2021/10/13 14:20:06;;;;;;;6.18;2.83;;;;;;;;;;10415949;28;20029;-84
2021/10/13 14:25:07;;;;;;;5.38;3.00;;;;;;;;;;10415702;28;20132;-85
2021/10/13 14:30:07;;;;;;;4.18;2.97;;;;;;;;;;10416627;28;20129;-84
2021/10/13 14:35:08;;;;;;;5.20;2.67;;;;;;;;;;10416512;28;20040;-84
2021/10/13 14:40:09;;;;;;;3.43;2.70;;;;;;;;;;10416868;28;20391;-84
2021/10/13 14:45:09;;;;;;;3.20;2.70;;;;;;;;;;10417910;28;20285;-83
2021/10/13 14:50:10;;;;;;;4.78;2.90;;;;;;;;;;10397621;28;20464;-85
2021/10/13 14:55:10;;;;;;;4.67;2.50;;;;;;;;;;10414703;28;20468;-86
2021/10/13 15:00:11;;;;;;;3.53;2.80;;;;;;;;;;10414089;28;20291;-84
2021/10/13 15:05:11;;;;;;;4.40;2.75;;;;;;;;;;10414228;28;20036;-84
2021/10/13 15:10:11;;;;;;;5.35;2.80;;;;;;;;;;10415398;28;20033;-85
2021/10/13 15:15:12;;;;;;;2.83;2.30;;;;;;;;;;10414300;28;20017;-85
2021/10/13 15:20:12;;;;;;;3.23;2.53;;;;;;;;;;10414072;28;20232;-85
2021/10/13 15:25:13;;;;;;;5.70;2.92;;;;;;;;;;10413804;28;20040;-85
2021/10/13 15:30:14;;;;;;;4.20;2.93;;;;;;;;;;10399787;28;20052;-85
2021/10/13 15:35:14;;;;;;;3.75;2.50;;;;;;;;;;10403503;28;20251;-85
2021/10/13 15:40:14;;;;;;;6.73;2.73;;;;;;;;;;10422327;28;20036;-85
2021/10/13 15:45:15;;;;;;;3.43;2.30;;;;;;;;;;10414064;28;20645;-85
2021/10/13 15:50:15;;;;;;;4.75;2.50;;;;;;;;;;10421030;28;20099;-86
2021/10/13 15:55:16;;;;;;;3.93;2.67;;;;;;;;;;10419765;28;20021;-86
2021/10/13 16:00:16;;;;;;;7.13;3.00;;;;;;;;;;10421093;28;20063;-86
2021/10/13 16:05:17;;;;;;;2.33;2.05;;;;;;;;;;10423932;28;20029;-86
2021/10/13 16:10:18;;;;;;;4.80;2.42;;;;;;;;;;10405660;28;20052;-85
2021/10/13 16:15:18;;;;;;;4.13;2.40;;;;;;;;;;10421126;28;20025;-85
2021/10/13 16:20:18;;;;;;;6.40;2.30;;;;;;;;;;10422404;28;20466;-85
2021/10/13 16:25:19;;;;;;;2.80;2.57;;;;;;;;;;10422527;28;20022;-85
2021/10/13 16:30:19;;;;;;;4.40;2.03;;;;;;;;;;10420003;28;20482;-84
2021/10/13 16:35:20;;;;;;;2.23;2.03;;;;;;;;;;10416243;28;20305;-83
2021/10/13 16:40:20;;;;;;;5.68;2.83;;;;;;;;;;10415111;28;20033;-85
2021/10/13 16:45:21;;;;;;;5.40;2.53;;;;;;;;;;10419525;28;20480;-85
2021/10/13 16:50:21;;;;;;;5.70;2.65;;;;;;;;;;10418430;28;20637;-85
2021/10/13 16:55:22;;;;;;;3.10;2.50;;;;;;;;;;10414880;28;20030;-86
2021/10/13 17:00:22;;;;;;;7.40;2.75;;;;;;;;;;10410402;28;20471;-90
2021/10/13 17:05:23;;;;;;;6.63;2.70;;;;;;;;;;10406969;28;20040;-84
2021/10/13 17:10:23;;;;;;;22.23;3.90;;;;;;;;;;10415229;28;20325;-92
2021/10/13 17:15:24;;;;;;;17.42;3.08;;;;;;;;;;10414259;28;20041;-88
2021/10/13 17:20:24;;;;;;;8.27;2.60;;;;;;;;;;10413794;28;20034;-87
2021/10/13 17:25:25;;;;;;;15.05;2.53;;;;;;;;;;10410105;28;20040;-87
2021/10/13 17:30:25;;;;;;;6.18;2.40;;;;;;;;;;10406770;28;20125;-87
2021/10/13 17:35:26;;;;;;;2.97;2.20;;;;;;;;;;10413477;28;20021;-86
2021/10/13 17:40:26;;;;;;;7.60;2.63;;;;;;;;;;10416544;28;20025;-83
2021/10/13 17:45:30;;;;;;;7.23;2.77;;;;;;;;;;10411092;28;20063;-86
2021/10/13 17:50:31;;;;;;;6.35;2.45;;;;;;;;;;10414387;28;20116;-86
2021/10/13 17:55:31;;;;;;;6.30;2.33;;;;;;;;;;10418026;28;20442;-85
2021/10/13 18:00:31;;;;;;;11.17;3.43;;;;;;;;;;10411566;28;20055;-83
2021/10/13 18:05:33;;;;;;;15.47;4.00;;;;;;;;;;10408359;28;21818;-84
2021/10/13 18:10:33;;;;;;;15.10;4.10;;;;;;;;;;10414820;28;20045;-84
2021/10/13 18:15:33;;;;;;;14.80;4.50;;;;;;;;;;10411911;28;20030;-84
2021/10/13 18:20:35;;;;;;;7.47;3.67;;;;;;;;;;10410781;28;20026;-84
2021/10/13 18:25:37;;;;;;;7.78;3.50;;;;;;;;;;10411086;28;20044;-85
2021/10/13 18:30:37;;;;;;;7.32;3.92;;;;;;;;;;10409796;28;20037;-87
2021/10/13 18:35:38;;;;;;;8.57;3.70;;;;;;;;;;10416623;28;20033;-86
2021/10/13 18:40:38;;;;;;;11.37;3.27;;;;;;;;;;10413142;28;20029;-86
2021/10/13 18:45:39;;;;;;;6.70;3.70;;;;;;;;;;10415322;28;20300;-87
2021/10/13 18:50:39;;;;;;;18.48;3.40;;;;;;;;;;10413712;28;20468;-91
2021/10/13 18:55:39;;;;;;;10.93;3.50;;;;;;;;;;10413738;28;20092;-91
2021/10/13 19:00:40;;;;;;;8.53;3.37;;;;;;;;;;10400341;28;20043;-91
2021/10/13 19:05:40;;;;;;;8.33;3.47;;;;;;;;;;10411613;28;20040;-90
2021/10/13 19:10:41;;;;;;;12.60;3.67;;;;;;;;;;10405861;28;20086;-90
2021/10/13 19:15:42;;;;;;;10.02;3.00;;;;;;;;;;10414011;28;20358;-91
2021/10/13 19:20:43;;;;;;;10.90;3.78;;;;;;;;;;10416751;28;20044;-91
2021/10/13 19:25:44;;;;;;;9.93;3.78;;;;;;;;;;10421698;28;20031;-91
2021/10/13 19:30:44;;;;;;;9.23;3.50;;;;;;;;;;10421512;28;20025;-91
2021/10/13 19:35:44;;;;;;;5.03;2.95;;;;;;;;;;10421419;28;20033;-91
2021/10/13 19:40:45;;;;;;;7.43;3.23;;;;;;;;;;10422238;28;20456;-91
2021/10/13 19:45:45;;;;;;;9.27;3.20;;;;;;;;;;10450662;23;20077;-92
2021/10/13 19:50:46;;;;;;;6.63;3.45;;;;;;;;;;10462414;28;20455;-89
2021/10/13 19:55:46;;;;;;;6.70;3.30;;;;;;;;;;10462312;28;20391;-84
2021/10/13 20:00:46;;;;;;;16.70;3.40;;;;;;;;;;10462656;28;20474;-86
2021/10/13 20:05:47;;;;;;;19.53;4.67;;;;;;;;;;10445089;28;20274;-90
2021/10/13 20:10:47;;;;;;;11.67;4.53;;;;;;;;;;10461701;28;20281;-90
2021/10/13 20:15:48;;;;;;;14.02;4.30;;;;;;;;;;10425426;28;20083;-88
2021/10/13 20:20:48;;;;;;;16.63;4.18;;;;;;;;;;10458010;28;20025;-92
2021/10/13 20:25:49;;;;;;;17.10;3.93;;;;;;;;;;10450663;28;20502;-93
2021/10/13 20:30:49;;;;;;;8.52;3.70;;;;;;;;;;10451616;28;20538;-93
2021/10/13 20:35:50;;;;;;;13.07;3.40;;;;;;;;;;10459107;28;20029;-94
2021/10/13 20:40:50;;;;;;;23.77;4.28;;;;;;;;;;10457159;28;20021;-94
2021/10/13 20:45:50;;;;;;;6.13;3.60;;;;;;;;;;10443454;28;20044;-94
2021/10/13 20:50:51;;;;;;;10.60;3.40;;;;;;;;;;10459388;28;20273;-93
2021/10/13 20:55:53;;;;;;;8.57;3.33;;;;;;;;;;10460809;28;20331;-93
2021/10/13 21:00:53;;;;;;;9.18;3.38;;;;;;;;;;10460678;28;20273;-94
2021/10/13 21:05:54;;;;;;;9.63;4.00;;;;;;;;;;10461506;28;20116;-92
2021/10/13 21:10:55;;;;;;;10.53;3.47;;;;;;;;;;10459801;28;20025;-93
2021/10/13 21:15:55;;;;;;;10.90;3.75;;;;;;;;;;10460209;28;20375;-93
2021/10/13 21:20:56;;;;;;;6.70;3.00;;;;;;;;;;10459277;28;20086;-92
2021/10/13 21:25:56;;;;;;;9.07;2.93;;;;;;;;;;10459787;28;20489;-92
2021/10/13 21:30:56;;;;;;;7.18;3.13;;;;;;;;;;10459733;28;20364;-93
2021/10/13 21:35:57;;;;;;;4.57;3.00;;;;;;;;;;10454493;28;20561;-89
2021/10/13 21:40:57;;;;;;;6.20;2.70;;;;;;;;;;10457486;28;20028;-89
2021/10/13 21:45:58;;;;;;;6.70;3.40;;;;;;;;;;10442490;28;20293;-88
2021/10/13 21:50:58;;;;;;;9.40;3.33;;;;;;;;;;10458107;28;20313;-89
2021/10/13 21:55:58;;;;;;;6.40;3.17;;;;;;;;;;10459072;28;20052;-89
2021/10/13 22:00:59;;;;;;;7.28;3.47;;;;;;;;;;10458170;28;20067;-89
2021/10/13 22:06:00;;;;;;;6.80;3.03;;;;;;;;;;10441078;28;20032;-89
2021/10/13 22:11:00;;;;;;;10.30;3.13;;;;;;;;;;10459446;28;20486;-89
2021/10/13 22:16:01;;;;;;;7.28;2.70;;;;;;;;;;10461148;28;20033;-91
2021/10/13 22:21:02;;;;;;;7.35;2.60;;;;;;;;;;10457436;28;20383;-88
2021/10/13 22:26:02;;;;;;;6.55;2.63;;;;;;;;;;10457868;28;20036;-91
2021/10/13 22:31:04;;;;;;;10.15;3.42;;;;;;;;;;10458381;28;20118;-90
2021/10/13 22:36:05;;;;;;;5.97;2.67;;;;;;;;;;10457335;28;20079;-89
2021/10/13 22:41:05;;;;;;;11.95;2.90;;;;;;;;;;10457894;28;20025;-96
2021/10/13 22:46:06;;;;;;;10.07;2.97;;;;;;;;;;10458781;28;20068;-93
2021/10/13 22:51:06;;;;;;;6.80;2.70;;;;;;;;;;10457292;28;20124;-91
2021/10/13 22:56:07;;;;;;;26.67;2.97;;;;;;;;;;10456306;28;20262;-91
2021/10/13 23:01:07;;;;;;;5.00;2.95;;;;;;;;;;10455589;28;20342;-91
2021/10/13 23:06:08;;;;;;;7.97;3.07;;;;;;;;;;10437899;28;20111;-92
2021/10/13 23:11:08;;;;;;;3.88;2.28;;;;;;;;;;10453519;28;20463;-90
2021/10/13 23:16:09;;;;;;;5.40;2.40;;;;;;;;;;10455343;28;20033;-92
2021/10/13 23:21:09;;;;;;;4.73;2.70;;;;;;;;;;10455459;28;20083;-93
2021/10/13 23:26:09;;;;;;;5.37;2.40;;;;;;;;;;10452831;28;20040;-92
2021/10/13 23:31:10;;;;;;;5.97;2.63;;;;;;;;;;10455933;28;20086;-92
2021/10/13 23:36:10;;;;;;;5.73;2.80;;;;;;;;;;10455801;28;20021;-91
2021/10/13 23:41:10;;;;;;;6.80;2.97;;;;;;;;;;10437782;28;20289;-91
2021/10/13 23:46:11;;;;;;;11.40;2.80;;;;;;;;;;10456420;28;20120;-93
2021/10/13 23:51:11;;;;;;;4.87;2.73;;;;;;;;;;10455347;28;20273;-92
2021/10/13 23:56:12;;;;;;;3.75;2.40;;;;;;;;;;10438230;28;20032;-90
